Time;durP1;ratioP1;P1;durP2;ratioP2;P2;SDS_P1;SDS_P2;PMS_P1;PMS_P2;Temp;Humidity;BMP_temperature;BMP_pressure;BME280_temperature;BME280_humidity;BME280_pressure;Samples;Min_cycle;Max_cycle;Signal;HPM_P1;HPM_P2
2023/06/07 00:01:51;;;;;;;5.50;2.60;;;22.20;77.30;;;;;;5033359;28;20041;-60
2023/06/07 00:04:17;;;;;;;6.95;2.70;;;22.10;77.10;;;;;;5033086;28;20200;-64
2023/06/07 00:06:43;;;;;;;7.57;2.67;;;22.50;77.50;;;;;;5045281;28;20131;-60
2023/06/07 00:09:09;;;;;;;9.07;3.08;;;22.50;77.50;;;;;;5041046;28;20038;-61
2023/06/07 00:11:36;;;;;;;8.40;2.88;;;22.20;74.20;;;;;;5033237;28;20133;-64
2023/06/07 00:14:02;;;;;;;8.40;2.97;;;22.40;77.50;;;;;;5044558;28;20071;-61
2023/06/07 00:16:28;;;;;;;8.13;2.83;;;22.40;77.50;;;;;;5052829;28;20063;-60
2023/06/07 00:18:54;;;;;;;7.95;3.03;;;22.30;75.60;;;;;;5048304;28;20041;-65
2023/06/07 00:21:20;;;;;;;7.22;3.10;;;21.90;77.30;;;;;;5038364;28;20563;-60
2023/06/07 00:23:46;;;;;;;9.35;2.80;;;22.20;77.30;;;;;;5048030;28;20108;-60
2023/06/07 00:26:12;;;;;;;7.20;2.75;;;22.40;77.60;;;;;;5032904;28;20037;-60
2023/06/07 00:28:38;;;;;;;7.85;2.97;;;22.40;77.50;;;;;;5032995;28;20056;-60
2023/06/07 00:31:04;;;;;;;8.63;2.85;;;22.20;77.50;;;;;;5044647;28;20037;-61
2023/06/07 00:33:30;;;;;;;9.10;3.00;;;;;;;;;;5031000;28;20494;-64
2023/06/07 00:35:56;;;;;;;8.90;2.53;;;22.30;77.50;;;;;;5037234;28;20049;-60
2023/06/07 00:38:25;;;;;;;6.13;2.78;;;22.10;77.40;;;;;;5052140;28;20070;-61
2023/06/07 00:40:51;;;;;;;10.60;3.00;;;;;;;;;;5050032;28;20478;-64
2023/06/07 00:43:17;;;;;;;8.93;3.28;;;22.30;77.50;;;;;;5050834;28;20060;-73
2023/06/07 00:45:43;;;;;;;7.50;2.90;;;22.20;77.50;;;;;;5052712;28;20045;-60
2023/06/07 00:48:09;;;;;;;7.72;2.92;;;22.10;77.40;;;;;;5034961;28;20037;-60
2023/06/07 00:50:35;;;;;;;8.48;2.67;;;22.20;77.50;;;;;;5040091;28;20057;-61
2023/06/07 00:53:02;;;;;;;7.10;2.95;;;;;;;;;;5038155;28;20041;-70
2023/06/07 00:55:28;;;;;;;7.00;2.65;;;22.10;77.50;;;;;;5032580;28;20049;-61
2023/06/07 00:57:54;;;;;;;7.53;2.70;;;22.10;77.50;;;;;;5026491;28;20501;-65
2023/06/07 01:00:20;;;;;;;8.18;2.92;;;22.40;77.70;;;;;;5050033;28;20052;-60
2023/06/07 01:02:46;;;;;;;8.88;2.75;;;22.30;77.60;;;;;;5056697;28;20033;-75
2023/06/07 01:05:13;;;;;;;8.48;3.00;;;22.20;77.50;;;;;;5038654;28;20125;-63
2023/06/07 01:07:38;;;;;;;9.05;2.88;;;22.30;77.70;;;;;;5043607;28;20115;-62
2023/06/07 01:10:05;;;;;;;6.57;2.58;;;22.10;74.90;;;;;;5054448;28;20132;-61
2023/06/07 01:12:34;;;;;;;7.20;2.95;;;22.20;77.60;;;;;;5049631;28;20483;-62
2023/06/07 01:14:59;;;;;;;9.40;3.47;;;22.20;77.60;;;;;;5035976;28;20052;-61
2023/06/07 01:17:26;;;;;;;6.65;2.70;;;22.30;77.70;;;;;;5055077;28;20041;-60
2023/06/07 01:19:53;;;;;;;7.43;2.67;;;22.20;77.60;;;;;;5035839;28;20053;-61
2023/06/07 01:22:26;;;;;;;10.02;2.95;;;22.20;72.90;;;;;;5036942;28;20068;-63
2023/06/07 01:24:56;;;;;;;7.07;2.45;;;22.20;77.60;;;;;;5046736;28;20049;-72
2023/06/07 01:27:27;;;;;;;6.75;2.60;;;22.20;77.70;;;;;;5036346;28;20045;-61
2023/06/07 01:29:54;;;;;;;7.68;2.92;;;22.00;77.50;;;;;;5034341;28;20049;-61
2023/06/07 01:32:20;;;;;;;8.55;3.00;;;22.20;77.70;;;;;;5040096;28;20104;-72
2023/06/07 01:34:46;;;;;;;8.77;3.55;;;22.10;77.70;;;;;;5035023;28;20077;-70
2023/06/07 01:37:12;;;;;;;9.70;2.85;;;21.90;76.30;;;;;;5036272;28;20053;-63
2023/06/07 01:39:39;;;;;;;8.55;2.80;;;21.90;77.50;;;;;;5055960;28;20471;-64
2023/06/07 01:42:06;;;;;;;10.00;3.08;;;21.70;77.40;;;;;;5034676;28;20045;-64
2023/06/07 01:44:31;;;;;;;7.20;2.67;;;22.30;75.40;;;;;;5043914;28;20049;-61
2023/06/07 01:46:57;;;;;;;8.68;3.70;;;22.30;77.80;;;;;;5034594;28;20072;-67
2023/06/07 01:49:23;;;;;;;7.47;2.70;;;22.20;77.80;;;;;;5045995;28;20114;-70
2023/06/07 01:51:49;;;;;;;8.95;2.83;;;21.80;77.40;;;;;;5044367;28;20057;-60
2023/06/07 01:54:15;;;;;;;7.30;2.60;;;22.20;77.70;;;;;;5037197;28;20096;-64
2023/06/07 01:56:56;;;;;;;5.55;2.47;;;22.30;77.70;;;;;;5055725;28;20120;-64
2023/06/07 01:59:56;;;;;;;9.77;3.13;;;22.30;77.80;;;;;;5048265;28;20479;-60
2023/06/07 02:02:43;;;;;;;6.28;2.45;;;22.10;77.70;;;;;;5047641;28;20037;-73
2023/06/07 02:05:15;;;;;;;7.60;2.72;;;22.00;77.70;;;;;;5052377;28;20129;-63
2023/06/07 02:07:51;;;;;;;7.07;2.47;;;22.20;77.90;;;;;;5053766;28;20110;-60
2023/06/07 02:10:23;;;;;;;7.95;2.80;;;22.20;77.90;;;;;;5053662;28;20057;-60
2023/06/07 02:12:50;;;;;;;7.22;2.55;;;21.90;76.50;;;;;;5048958;28;20537;-61
2023/06/07 02:15:16;;;;;;;6.47;2.60;;;22.30;77.90;;;;;;5036725;28;20057;-76
2023/06/07 02:17:57;;;;;;;7.95;2.58;;;22.30;78.00;;;;;;5053241;28;20146;-63
2023/06/07 02:20:27;;;;;;;7.00;2.72;;;22.10;77.90;;;;;;5055313;28;20056;-61
2023/06/07 02:22:53;;;;;;;10.15;3.10;;;22.10;77.90;;;;;;5047138;28;20047;-60
2023/06/07 02:25:19;;;;;;;7.20;2.65;;;;;;;;;;5036446;28;20053;-62
2023/06/07 02:27:45;;;;;;;7.90;2.97;;;22.00;77.80;;;;;;5054886;28;20049;-60
2023/06/07 02:30:11;;;;;;;8.25;2.53;;;22.20;78.00;;;;;;5041323;28;20037;-60
2023/06/07 02:32:38;;;;;;;7.03;2.53;;;21.90;77.80;;;;;;5042289;28;20077;-60
2023/06/07 02:35:07;;;;;;;6.70;2.63;;;22.10;74.70;;;;;;5035131;28;20170;-66
2023/06/07 02:37:32;;;;;;;8.68;3.15;;;22.10;77.90;;;;;;5035002;28;20033;-72
2023/06/07 02:39:58;;;;;;;8.38;3.05;;;21.80;77.90;;;;;;5039222;28;20055;-60
2023/06/07 02:42:24;;;;;;;7.28;2.55;;;22.20;78.00;;;;;;5053378;28;20040;-66
2023/06/07 02:44:49;;;;;;;8.98;3.13;;;22.20;78.00;;;;;;5036308;28;20053;-61
2023/06/07 02:47:15;;;;;;;8.23;2.90;;;22.20;78.10;;;;;;5041856;28;20044;-77
2023/06/07 02:49:41;;;;;;;7.90;2.60;;;22.10;78.00;;;;;;5052126;28;20037;-74
2023/06/07 02:52:07;;;;;;;8.93;2.70;;;22.20;78.00;;;;;;5047123;28;20160;-73
2023/06/07 02:54:36;;;;;;;7.60;2.58;;;21.80;77.90;;;;;;5046691;28;20459;-77
2023/06/07 02:57:02;;;;;;;10.50;3.05;;;22.10;78.10;;;;;;5054305;28;20049;-78
2023/06/07 02:59:27;;;;;;;8.20;2.55;;;22.10;78.10;;;;;;5054260;28;20102;-69
2023/06/07 03:01:53;;;;;;;9.23;2.80;;;22.20;78.20;;;;;;5053614;28;20119;-73
2023/06/07 03:04:19;;;;;;;8.73;3.03;;;22.10;78.20;;;;;;5033766;28;20085;-76
2023/06/07 03:06:48;;;;;;;7.20;2.83;;;;;;;;;;5034488;28;20045;-77
2023/06/07 03:09:14;;;;;;;7.43;2.65;;;22.20;78.20;;;;;;5034047;28;20102;-73
2023/06/07 03:11:40;;;;;;;7.30;3.38;;;22.10;78.10;;;;;;5045499;28;20049;-77
2023/06/07 03:14:06;;;;;;;6.35;2.42;;;;;;;;;;5048220;28;20052;-75
2023/06/07 03:16:32;;;;;;;7.43;2.47;;;22.10;78.20;;;;;;5053327;28;20052;-74
2023/06/07 03:18:58;;;;;;;8.00;2.60;;;22.10;78.20;;;;;;5049524;28;20049;-76
2023/06/07 03:21:23;;;;;;;9.82;2.75;;;22.20;78.30;;;;;;5053065;28;20049;-75
2023/06/07 03:23:49;;;;;;;6.97;2.63;;;22.20;78.20;;;;;;5042328;28;20046;-74
2023/06/07 03:26:17;;;;;;;6.43;2.50;;;22.20;78.30;;;;;;5050445;28;20049;-76
2023/06/07 03:28:42;;;;;;;6.80;2.45;;;22.00;78.10;;;;;;5039808;28;20048;-77
2023/06/07 03:31:08;;;;;;;9.07;3.10;;;22.30;78.40;;;;;;5053532;28;20045;-77
2023/06/07 03:33:34;;;;;;;5.82;2.17;;;22.20;78.30;;;;;;5046495;28;20085;-76
2023/06/07 03:36:00;;;;;;;9.43;2.75;;;;;;;;;;5046764;28;20094;-72
2023/06/07 03:38:26;;;;;;;6.35;2.50;;;22.10;78.10;;;;;;5034414;28;20403;-76
2023/06/07 03:40:51;;;;;;;6.60;2.60;;;22.10;78.20;;;;;;5033452;28;20060;-77
2023/06/07 03:43:17;;;;;;;6.15;2.53;;;;;;;;;;5042080;28;20086;-71
2023/06/07 03:45:43;;;;;;;5.35;2.28;;;22.20;78.40;;;;;;5044333;28;20036;-74
2023/06/07 03:48:09;;;;;;;7.50;2.90;;;22.10;78.30;;;;;;5053617;28;20518;-75
2023/06/07 03:50:35;;;;;;;6.60;2.10;;;21.90;78.20;;;;;;5053544;28;20474;-75
2023/06/07 03:53:01;;;;;;;7.70;2.85;;;22.00;78.20;;;;;;5050968;28;20049;-78
2023/06/07 03:55:29;;;;;;;9.63;2.88;;;22.10;78.40;;;;;;5051983;28;20098;-66
2023/06/07 03:57:55;;;;;;;8.52;2.72;;;22.10;78.40;;;;;;5038562;28;20040;-61
2023/06/07 04:00:21;;;;;;;8.85;2.75;;;22.10;78.40;;;;;;5049407;28;20399;-74
2023/06/07 04:02:46;;;;;;;7.93;2.58;;;22.10;78.40;;;;;;5034175;28;20045;-75
2023/06/07 04:05:12;;;;;;;7.50;2.40;;;22.20;78.40;;;;;;5033212;28;20056;-78
2023/06/07 04:07:38;;;;;;;7.95;2.83;;;;;;;;;;5053221;28;20040;-72
2023/06/07 04:10:04;;;;;;;7.50;2.88;;;22.10;78.40;;;;;;5052005;28;20060;-76
2023/06/07 04:12:30;;;;;;;6.45;2.67;;;22.10;78.40;;;;;;5033160;28;20059;-74
2023/06/07 04:14:56;;;;;;;5.93;2.42;;;22.10;78.40;;;;;;5043947;28;20478;-71
2023/06/07 04:17:22;;;;;;;5.82;2.30;;;22.00;78.40;;;;;;5032853;28;20537;-78
2023/06/07 04:19:54;;;;;;;8.52;3.47;;;21.80;78.30;;;;;;5038786;28;20040;-71
2023/06/07 04:22:20;;;;;;;7.82;2.47;;;22.30;78.60;;;;;;5052447;28;20406;-74
2023/06/07 04:24:46;;;;;;;9.02;2.70;;;22.10;78.50;;;;;;5032785;28;20045;-77
2023/06/07 04:27:13;;;;;;;6.90;2.60;;;22.00;78.30;;;;;;5048019;28;20049;-77
2023/06/07 04:29:40;;;;;;;6.00;2.20;;;;;;;;;;5040680;28;20063;-72
2023/06/07 04:32:09;;;;;;;10.63;2.97;;;22.10;78.50;;;;;;5047553;28;20045;-73
2023/06/07 04:34:41;;;;;;;7.15;2.67;;;22.00;78.40;;;;;;5047007;28;20075;-69
2023/06/07 04:37:08;;;;;;;7.20;2.63;;;22.10;78.40;;;;;;5051900;28;20486;-72
2023/06/07 04:39:36;;;;;;;6.82;2.55;;;22.10;78.40;;;;;;5049129;28;20049;-73
2023/06/07 04:42:05;;;;;;;9.75;2.53;;;22.30;78.60;;;;;;5052448;28;20457;-79
2023/06/07 04:44:31;;;;;;;6.43;2.50;;;21.90;78.40;;;;;;5046931;28;20111;-80
2023/06/07 04:46:59;;;;;;;6.50;2.50;;;22.20;78.50;;;;;;5041892;28;20041;-77
2023/06/07 04:49:25;;;;;;;7.88;2.53;;;;;;;;;;5052677;28;20084;-74
2023/06/07 04:51:52;;;;;;;7.80;2.63;;;22.40;78.60;;;;;;5052062;28;20438;-79
2023/06/07 04:54:19;;;;;;;5.68;2.03;;;22.40;78.50;;;;;;5032789;28;20045;-79
2023/06/07 04:56:46;;;;;;;6.15;2.28;;;22.30;78.40;;;;;;5040369;28;20470;-62
2023/06/07 04:59:11;;;;;;;5.65;2.45;;;22.50;78.40;;;;;;5050742;28;20037;-60
2023/06/07 05:01:38;;;;;;;5.00;2.15;;;22.40;78.30;;;;;;5037397;28;20068;-71
2023/06/07 05:04:03;;;;;;;8.23;2.88;;;22.60;78.30;;;;;;5033443;28;20045;-79
2023/06/07 05:06:31;;;;;;;6.55;2.53;;;22.20;78.00;;;;;;5032348;28;20053;-61
2023/06/07 05:08:56;;;;;;;5.88;2.20;;;22.50;78.10;;;;;;5039132;28;20491;-61
2023/06/07 05:11:22;;;;;;;5.25;2.40;;;22.60;78.10;;;;;;5031922;28;20103;-77
2023/06/07 05:13:48;;;;;;;8.40;2.65;;;22.70;78.10;;;;;;5050915;28;20037;-70
2023/06/07 05:16:17;;;;;;;8.07;2.85;;;22.40;77.90;;;;;;5035300;28;20077;-61
2023/06/07 05:18:46;;;;;;;5.55;2.28;;;22.60;78.50;;;;;;5042058;28;20052;-62
2023/06/07 05:21:13;;;;;;;7.53;2.58;;;22.70;78.20;;;;;;5032502;28;20053;-77
2023/06/07 05:23:39;;;;;;;9.80;3.22;;;22.50;78.10;;;;;;5043704;28;20395;-61
2023/06/07 05:26:05;;;;;;;8.90;2.70;;;22.60;78.20;;;;;;5049317;28;20048;-61
2023/06/07 05:28:31;;;;;;;6.47;2.25;;;22.50;78.30;;;;;;5051101;28;20049;-61
2023/06/07 05:30:58;;;;;;;8.52;2.97;;;22.50;78.00;;;;;;5052198;28;20053;-76
2023/06/07 05:33:28;;;;;;;8.38;2.60;;;22.50;76.10;;;;;;5044867;28;20057;-72
2023/06/07 05:35:55;;;;;;;7.32;2.80;;;22.70;78.40;;;;;;5035799;28;20152;-73
2023/06/07 05:38:21;;;;;;;6.80;2.60;;;22.70;78.40;;;;;;5041191;28;20046;-78
2023/06/07 05:40:47;;;;;;;7.43;2.60;;;;;;;;;;5032083;28;20057;-62
2023/06/07 05:43:13;;;;;;;6.07;3.08;;;22.70;78.40;;;;;;5046420;28;20037;-63
2023/06/07 05:45:40;;;;;;;7.32;2.30;;;22.60;75.10;;;;;;5038177;28;20401;-64
2023/06/07 05:48:06;;;;;;;8.18;2.72;;;22.70;78.40;;;;;;5052574;28;20122;-60
2023/06/07 05:50:32;;;;;;;8.40;2.88;;;22.40;78.40;;;;;;5052463;28;20060;-65
2023/06/07 05:52:59;;;;;;;6.65;2.50;;;22.90;78.50;;;;;;5051139;28;20047;-61
2023/06/07 05:55:27;;;;;;;6.50;2.72;;;22.80;78.50;;;;;;5054157;28;20052;-61
2023/06/07 05:57:54;;;;;;;6.45;2.53;;;22.80;78.50;;;;;;5055659;28;20060;-61
2023/06/07 06:00:20;;;;;;;7.88;2.70;;;22.70;78.40;;;;;;5052700;28;20037;-76
2023/06/07 06:02:46;;;;;;;7.13;2.47;;;22.90;78.60;;;;;;5055525;28;20049;-61
2023/06/07 06:05:15;;;;;;;9.25;2.67;;;23.00;78.60;;;;;;5045977;28;20118;-61
2023/06/07 06:07:42;;;;;;;5.90;2.63;;;23.00;75.20;;;;;;5042679;28;20561;-63
2023/06/07 06:10:08;;;;;;;10.32;2.65;;;22.90;78.30;;;;;;5035385;28;20053;-60
2023/06/07 06:12:34;;;;;;;8.40;3.47;;;23.10;78.40;;;;;;5039427;28;20072;-61
2023/06/07 06:15:00;;;;;;;9.00;3.05;;;23.00;78.30;;;;;;5037093;28;20117;-61
2023/06/07 06:17:26;;;;;;;7.38;2.55;;;23.00;78.20;;;;;;5034028;28;20057;-61
2023/06/07 06:19:52;;;;;;;7.00;2.67;;;;;;;;;;5034680;28;20167;-64
2023/06/07 06:22:18;;;;;;;8.02;2.78;;;23.00;78.10;;;;;;5038566;28;20033;-61
2023/06/07 06:24:44;;;;;;;7.90;2.78;;;;;;;;;;5046352;28;20107;-61
2023/06/07 06:27:11;;;;;;;8.30;2.80;;;23.20;78.40;;;;;;5038908;28;20094;-63
2023/06/07 06:29:37;;;;;;;6.75;3.28;;;23.20;78.20;;;;;;5034845;28;20061;-60
2023/06/07 06:32:03;;;;;;;7.10;2.70;;;23.30;78.20;;;;;;5034668;28;20041;-60
2023/06/07 06:34:29;;;;;;;8.88;2.85;;;23.20;78.20;;;;;;5050571;28;20053;-64
2023/06/07 06:36:57;;;;;;;8.48;2.90;;;23.20;77.90;;;;;;5052581;28;20037;-60
2023/06/07 06:39:26;;;;;;;9.77;2.97;;;23.20;77.80;;;;;;5048196;28;20422;-61
2023/06/07 06:41:52;;;;;;;9.35;3.10;;;23.30;77.90;;;;;;5038052;28;20041;-70
2023/06/07 06:44:18;;;;;;;9.60;3.30;;;23.30;77.30;;;;;;5044019;28;20037;-69
2023/06/07 06:46:43;;;;;;;9.10;3.53;;;23.30;77.60;;;;;;5061842;28;20049;-66
2023/06/07 06:49:09;;;;;;;10.13;3.10;;;23.40;77.60;;;;;;5040204;28;20509;-74
2023/06/07 06:51:35;;;;;;;9.95;2.60;;;23.50;75.50;;;;;;5052469;28;20052;-61
2023/06/07 06:54:01;;;;;;;10.57;3.35;;;23.60;74.80;;;;;;5052987;28;20108;-60
2023/06/07 06:56:27;;;;;;;10.70;3.40;;;23.40;77.50;;;;;;5038836;28;20049;-62
2023/06/07 06:58:52;;;;;;;14.82;3.22;;;23.60;77.50;;;;;;5033984;28;20509;-61
2023/06/07 07:01:18;;;;;;;11.60;3.60;;;23.50;77.40;;;;;;5035492;28;20396;-61
2023/06/07 07:03:44;;;;;;;9.85;2.90;;;23.70;77.40;;;;;;5037884;28;20049;-75
2023/06/07 07:06:10;;;;;;;10.20;3.10;;;23.50;74.40;;;;;;5034225;28;20138;-79
2023/06/07 07:08:36;;;;;;;11.32;3.13;;;23.50;77.20;;;;;;5034508;28;20046;-69
2023/06/07 07:11:02;;;;;;;10.85;3.10;;;23.60;77.00;;;;;;5036177;28;20514;-78
2023/06/07 07:13:27;;;;;;;9.40;3.22;;;23.60;77.20;;;;;;5052505;28;20041;-72
2023/06/07 07:15:54;;;;;;;9.27;3.05;;;;;;;;;;5050207;28;20040;-71
2023/06/07 07:18:20;;;;;;;10.05;3.03;;;24.10;77.00;;;;;;5044220;28;20041;-73
2023/06/07 07:20:45;;;;;;;7.18;3.10;;;23.90;74.20;;;;;;5052900;28;20048;-78
2023/06/07 07:23:12;;;;;;;7.28;3.13;;;24.10;76.80;;;;;;5053026;28;20047;-64
2023/06/07 07:25:38;;;;;;;7.43;2.83;;;24.10;76.80;;;;;;5048263;28;20049;-73
2023/06/07 07:28:04;;;;;;;8.02;2.95;;;24.10;73.90;;;;;;5034143;28;20053;-76
2023/06/07 07:30:30;;;;;;;9.88;3.00;;;24.30;76.40;;;;;;5038025;28;20044;-78
2023/06/07 07:32:56;;;;;;;8.07;3.08;;;24.30;76.40;;;;;;5053698;28;20079;-75
2023/06/07 07:35:23;;;;;;;9.70;3.55;;;24.50;73.40;;;;;;5050702;28;20068;-74
2023/06/07 07:37:50;;;;;;;9.68;3.45;;;24.40;73.50;;;;;;5053819;28;20124;-76
2023/06/07 07:40:16;;;;;;;10.40;2.97;;;24.30;73.50;;;;;;5052482;28;20107;-65
2023/06/07 07:42:41;;;;;;;6.47;2.70;;;24.80;73.50;;;;;;5034078;28;20049;-75
2023/06/07 07:45:08;;;;;;;7.95;2.90;;;24.50;76.00;;;;;;5035879;28;20140;-76
2023/06/07 07:47:33;;;;;;;7.97;3.08;;;24.50;75.90;;;;;;5034841;28;20037;-74
2023/06/07 07:50:00;;;;;;;10.70;3.00;;;24.60;75.90;;;;;;5052991;28;20474;-73
2023/06/07 07:52:26;;;;;;;7.60;2.95;;;24.50;76.10;;;;;;5040481;28;20074;-68
2023/06/07 07:54:52;;;;;;;8.60;3.08;;;24.60;73.10;;;;;;5052488;28;20044;-60
2023/06/07 07:57:18;;;;;;;6.95;2.70;;;24.90;73.10;;;;;;5035043;28;20045;-74
2023/06/07 07:59:43;;;;;;;9.32;2.90;;;24.80;75.70;;;;;;5033200;28;20096;-77
2023/06/07 08:02:10;;;;;;;7.35;3.35;;;25.00;75.60;;;;;;5035550;28;20037;-74
2023/06/07 08:04:35;;;;;;;6.60;2.80;;;25.10;72.90;;;;;;5039893;28;20064;-76
2023/06/07 08:07:01;;;;;;;8.43;2.72;;;25.00;72.40;;;;;;5052984;28;20040;-66
2023/06/07 08:09:27;;;;;;;6.43;2.75;;;25.20;75.50;;;;;;5040749;28;20053;-74
2023/06/07 08:11:53;;;;;;;8.93;3.20;;;25.10;72.30;;;;;;5034037;28;20056;-73
2023/06/07 08:14:19;;;;;;;7.18;2.80;;;25.40;72.30;;;;;;5052857;28;20487;-67
2023/06/07 08:16:45;;;;;;;8.32;2.78;;;25.40;72.20;;;;;;5053115;28;20048;-77
2023/06/07 08:19:11;;;;;;;7.90;2.65;;;25.40;72.20;;;;;;5052857;28;20041;-69
2023/06/07 08:21:37;;;;;;;5.53;2.42;;;25.50;72.10;;;;;;5051613;28;20396;-72
2023/06/07 08:24:03;;;;;;;6.40;2.80;;;25.70;72.10;;;;;;5034610;28;20038;-70
2023/06/07 08:26:30;;;;;;;5.57;2.53;;;25.70;71.80;;;;;;5040601;28;20095;-76
2023/06/07 08:28:56;;;;;;;6.65;2.70;;;25.80;72.00;;;;;;5032716;28;20080;-77
2023/06/07 08:31:26;;;;;;;7.28;3.00;;;25.60;71.60;;;;;;5031483;28;20091;-69
2023/06/07 08:33:53;;;;;;;5.93;2.30;;;25.40;70.40;;;;;;5048625;28;20124;-64
2023/06/07 08:36:18;;;;;;;6.80;2.80;;;25.60;71.40;;;;;;5051357;28;20096;-61
2023/06/07 08:38:45;;;;;;;6.05;2.97;;;25.90;71.70;;;;;;5052492;28;20045;-65
2023/06/07 08:41:10;;;;;;;7.32;2.65;;;25.70;74.30;;;;;;5052442;28;20041;-61
2023/06/07 08:43:37;;;;;;;6.35;2.83;;;25.80;71.50;;;;;;5041124;28;20046;-70
2023/06/07 08:46:04;;;;;;;7.70;2.90;;;25.60;71.30;;;;;;5032632;28;20049;-68
2023/06/07 08:48:31;;;;;;;7.80;2.78;;;26.00;71.50;;;;;;5031622;28;20116;-78
2023/06/07 08:50:56;;;;;;;5.30;2.20;;;26.10;71.80;;;;;;5032691;28;20050;-75
2023/06/07 08:54:00;;;;;;;7.63;2.60;;;25.70;71.20;;;;;;5014805;28;20373;-68
2023/06/07 08:56:27;;;;;;;7.10;2.78;;;26.00;70.30;;;;;;5031369;28;20053;-61
2023/06/07 08:58:53;;;;;;;10.10;2.88;;;25.90;71.60;;;;;;5014674;28;20435;-61
2023/06/07 09:01:20;;;;;;;6.05;2.95;;;26.00;71.30;;;;;;5031916;28;20038;-62
2023/06/07 09:03:52;;;;;;;6.22;2.60;;;25.90;71.40;;;;;;5022257;28;20041;-61
2023/06/07 09:06:18;;;;;;;8.30;2.70;;;25.80;70.60;;;;;;5048155;28;20068;-61
2023/06/07 09:08:44;;;;;;;7.13;2.83;;;26.00;71.40;;;;;;5040062;28;20080;-78
2023/06/07 09:11:10;;;;;;;8.60;2.97;;;26.10;71.30;;;;;;5041278;28;20590;-68
2023/06/07 09:13:36;;;;;;;10.15;2.83;;;26.10;71.40;;;;;;5047007;28;20132;-73
2023/06/07 09:16:02;;;;;;;6.63;2.58;;;26.00;71.10;;;;;;5043376;28;20407;-72
2023/06/07 09:18:44;;;;;;;10.15;3.00;;;26.00;70.90;;;;;;5043307;28;20033;-74
2023/06/07 09:21:20;;;;;;;9.52;3.28;;;25.80;71.30;;;;;;5054379;28;20072;-75
2023/06/07 09:23:46;;;;;;;10.20;3.17;;;25.70;71.20;;;;;;5055216;28;20045;-69
2023/06/07 09:26:11;;;;;;;8.85;3.08;;;25.70;70.60;;;;;;5054556;28;20052;-73
2023/06/07 09:28:38;;;;;;;8.23;3.15;;;26.00;70.80;;;;;;5045030;28;20407;-72
2023/06/07 09:31:04;;;;;;;7.57;3.03;;;25.70;70.70;;;;;;5055826;28;20041;-76
2023/06/07 09:33:34;;;;;;;9.10;3.55;;;25.70;70.70;;;;;;5051550;28;20057;-77
2023/06/07 09:36:12;;;;;;;9.38;3.00;;;25.60;70.70;;;;;;5051922;28;20049;-78
2023/06/07 09:38:38;;;;;;;8.15;3.38;;;25.80;71.00;;;;;;5049149;28;20037;-78
2023/06/07 09:41:05;;;;;;;10.20;3.85;;;25.50;70.50;;;;;;5036141;28;20045;-61
2023/06/07 09:43:44;;;;;;;9.57;3.40;;;25.70;70.90;;;;;;5036089;28;20049;-77
2023/06/07 09:46:09;;;;;;;9.02;3.35;;;25.80;71.30;;;;;;5053349;28;20044;-64
2023/06/07 09:48:45;;;;;;;11.00;3.47;;;25.50;70.50;;;;;;5052553;28;20055;-61
2023/06/07 09:51:11;;;;;;;10.23;3.30;;;25.30;70.90;;;;;;5046026;28;20045;-60
2023/06/07 09:53:54;;;;;;;9.60;3.25;;;25.40;70.60;;;;;;5053375;28;20497;-74
2023/06/07 09:56:21;;;;;;;8.50;3.50;;;25.30;71.30;;;;;;5041771;28;20046;-76
2023/06/07 09:58:51;;;;;;;9.80;3.58;;;25.30;70.90;;;;;;5052967;28;20106;-71
2023/06/07 10:01:41;;;;;;;10.45;3.20;;;25.60;71.30;;;;;;5054591;28;20398;-78
2023/06/07 10:04:08;;;;;;;11.32;3.33;;;25.50;71.60;;;;;;5043838;28;20104;-80
2023/06/07 10:06:40;;;;;;;10.00;3.75;;;25.40;71.20;;;;;;5034540;28;20049;-86
2023/06/07 10:09:06;;;;;;;10.10;3.40;;;25.40;69.90;;;;;;5034074;28;20049;-86
2023/06/07 10:11:33;;;;;;;13.10;3.53;;;25.40;71.20;;;;;;5035644;28;20041;-78
2023/06/07 10:14:10;;;;;;;12.82;4.15;;;25.20;71.40;;;;;;5053214;28;20057;-82
2023/06/07 10:16:36;;;;;;;12.82;3.95;;;25.40;70.40;;;;;;5055435;28;20080;-65
2023/06/07 10:19:16;;;;;;;19.15;4.15;;;25.20;71.60;;;;;;5052296;28;20048;-66
2023/06/07 10:21:43;;;;;;;10.85;3.60;;;25.30;72.00;;;;;;5046418;28;20055;-69
2023/06/07 10:24:11;;;;;;;9.60;3.30;;;25.30;71.40;;;;;;5040024;28;20077;-79
2023/06/07 10:26:59;;;;;;;10.13;3.72;;;25.10;71.60;;;;;;5035450;28;20045;-81
2023/06/07 10:29:39;;;;;;;10.10;3.65;;;25.20;72.20;;;;;;5036752;28;20172;-76
2023/06/07 10:32:20;;;;;;;12.65;3.47;;;25.00;70.40;;;;;;5036608;28;20076;-76
2023/06/07 10:34:46;;;;;;;8.85;3.60;;;25.40;72.10;;;;;;5040297;28;20099;-74
2023/06/07 10:37:13;;;;;;;9.60;3.70;;;25.30;71.70;;;;;;5037275;28;20045;-78
2023/06/07 10:39:39;;;;;;;14.23;3.78;;;25.10;71.60;;;;;;5052265;28;20045;-74
2023/06/07 10:42:06;;;;;;;12.18;4.07;;;25.40;71.70;;;;;;5035164;28;20046;-78
2023/06/07 10:44:32;;;;;;;13.73;4.68;;;24.90;71.70;;;;;;5038388;28;20045;-74
2023/06/07 10:47:32;;;;;;;11.57;4.05;;;25.00;71.60;;;;;;5052768;28;20120;-74
2023/06/07 10:49:58;;;;;;;7.40;3.67;;;25.10;70.90;;;;;;5037853;28;20466;-78
2023/06/07 10:52:26;;;;;;;10.25;3.72;;;25.10;71.80;;;;;;5042070;28;20132;-83
2023/06/07 10:54:52;;;;;;;10.95;4.43;;;24.80;71.90;;;;;;5034530;28;20110;-81
2023/06/07 10:57:35;;;;;;;8.45;4.05;;;25.20;72.10;;;;;;5034482;28;20156;-76
2023/06/07 11:00:25;;;;;;;12.70;4.15;;;25.20;72.60;;;;;;5049693;28;20142;-83
2023/06/07 11:03:02;;;;;;;10.65;3.92;;;25.10;71.20;;;;;;5044716;28;20045;-76
2023/06/07 11:05:57;;;;;;;10.55;4.25;;;25.20;72.30;;;;;;5032613;28;20110;-85
2023/06/07 11:08:27;;;;;;;11.25;4.15;;;24.90;71.00;;;;;;5033963;28;20520;-72
2023/06/07 11:11:00;;;;;;;10.52;4.30;;;25.10;72.50;;;;;;5049914;28;20087;-71
2023/06/07 11:13:27;;;;;;;8.93;3.88;;;25.10;75.70;;;;;;5042383;28;20507;-76
2023/06/07 11:15:52;;;;;;;10.13;3.90;;;25.00;72.30;;;;;;5041321;28;20083;-73
2023/06/07 11:18:18;;;;;;;9.05;3.88;;;25.10;72.10;;;;;;5053907;28;20376;-79
2023/06/07 11:20:45;;;;;;;10.95;3.92;;;25.20;72.10;;;;;;5042931;28;20045;-76
2023/06/07 11:23:27;;;;;;;12.85;4.35;;;25.10;72.20;;;;;;5052373;28;20045;-61
2023/06/07 11:25:58;;;;;;;10.23;3.55;;;25.00;71.30;;;;;;5053957;28;20052;-73
2023/06/07 11:28:26;;;;;;;8.95;4.25;;;25.10;72.60;;;;;;5053751;28;20045;-76
2023/06/07 11:30:52;;;;;;;14.98;4.35;;;25.00;75.80;;;;;;5050083;28;20045;-79
2023/06/07 11:33:20;;;;;;;11.90;3.70;;;25.10;72.30;;;;;;5034249;28;20553;-73
2023/06/07 11:35:45;;;;;;;10.18;3.90;;;25.10;72.20;;;;;;5040277;28;20048;-74
2023/06/07 11:38:11;;;;;;;14.75;4.03;;;25.00;72.50;;;;;;5053435;28;20495;-76
2023/06/07 11:40:37;;;;;;;13.15;4.40;;;24.80;72.10;;;;;;5050738;28;20044;-69
2023/06/07 11:43:03;;;;;;;10.80;4.35;;;25.00;72.60;;;;;;5052689;28;20041;-71
2023/06/07 11:45:31;;;;;;;11.48;3.70;;;25.00;72.20;;;;;;5048505;28;20033;-73
2023/06/07 11:48:00;;;;;;;14.45;3.85;;;25.10;72.60;;;;;;5042306;28;20182;-67
2023/06/07 11:50:26;;;;;;;10.15;3.78;;;25.10;75.80;;;;;;5049912;28;20067;-70
2023/06/07 11:52:55;;;;;;;9.55;4.18;;;25.00;72.30;;;;;;5045510;28;20041;-73
2023/06/07 11:55:21;;;;;;;10.40;4.20;;;25.10;72.90;;;;;;5045176;28;20049;-67
2023/06/07 11:57:52;;;;;;;11.32;3.97;;;25.30;72.60;;;;;;5033243;28;20045;-62
2023/06/07 12:00:20;;;;;;;10.48;3.88;;;24.90;75.60;;;;;;5034152;28;20126;-71
2023/06/07 12:02:47;;;;;;;9.57;3.78;;;24.90;72.30;;;;;;5052798;28;20041;-74
2023/06/07 12:05:13;;;;;;;10.43;4.22;;;25.00;72.60;;;;;;5051329;28;20041;-63
2023/06/07 12:07:40;;;;;;;11.02;4.47;;;25.00;72.40;;;;;;5040203;28;20049;-62
2023/06/07 12:10:07;;;;;;;8.98;3.80;;;24.90;72.50;;;;;;5036736;28;20041;-75
2023/06/07 12:12:34;;;;;;;12.77;4.28;;;25.10;72.10;;;;;;5034205;28;20075;-66
2023/06/07 12:15:03;;;;;;;14.65;4.50;;;25.30;72.90;;;;;;5037291;28;20040;-78
2023/06/07 12:17:35;;;;;;;15.63;4.15;;;24.90;72.40;;;;;;5038690;28;20507;-72
2023/06/07 12:20:14;;;;;;;10.88;4.25;;;24.80;75.90;;;;;;5040556;28;20391;-72
2023/06/07 12:22:40;;;;;;;11.52;4.05;;;24.80;72.90;;;;;;5032623;28;20092;-72
2023/06/07 12:25:16;;;;;;;20.95;4.47;;;24.90;72.70;;;;;;5041951;28;20052;-71
2023/06/07 12:27:48;;;;;;;9.48;4.35;;;25.10;73.10;;;;;;5048383;28;20454;-72
2023/06/07 12:30:14;;;;;;;11.38;3.58;;;25.10;72.80;;;;;;5032027;28;20391;-77
2023/06/07 12:32:39;;;;;;;15.18;3.95;;;25.10;72.50;;;;;;5045807;28;20033;-75
2023/06/07 12:35:06;;;;;;;12.75;4.43;;;25.10;72.20;;;;;;5039768;28;20053;-72
2023/06/07 12:37:37;;;;;;;12.25;3.72;;;25.00;72.20;;;;;;5032692;28;20094;-76
2023/06/07 12:40:05;;;;;;;8.25;3.70;;;25.10;72.30;;;;;;5038003;28;20376;-79
2023/06/07 12:42:34;;;;;;;12.20;3.90;;;24.90;76.20;;;;;;5043029;28;20049;-61
2023/06/07 12:45:01;;;;;;;9.55;4.00;;;25.00;72.80;;;;;;5050294;28;20056;-64
2023/06/07 12:47:27;;;;;;;16.88;4.45;;;24.80;72.50;;;;;;5052499;28;20590;-62
2023/06/07 12:49:53;;;;;;;12.82;4.20;;;25.20;72.80;;;;;;5041942;28;20085;-76
2023/06/07 12:52:19;;;;;;;13.73;4.20;;;25.00;72.60;;;;;;5033101;28;20056;-84